sensor_id;sensor_type;location;lat;lon;timestamp;temperature;humidity
36594;DHT22;22603;47.900;8.146;2022-11-30T00:00:37;4.20;99.90
36594;DHT22;22603;47.900;8.146;2022-11-30T00:03:24;4.20;99.90
36594;DHT22;22603;47.900;8.146;2022-11-30T00:06:13;4.20;99.90
36594;DHT22;22603;47.900;8.146;2022-11-30T00:09:02;4.20;99.90
36594;DHT22;22603;47.900;8.146;2022-11-30T00:11:49;4.20;99.90
36594;DHT22;22603;47.900;8.146;2022-11-30T00:14:36;4.20;99.90
36594;DHT22;22603;47.900;8.146;2022-11-30T00:17:23;4.20;99.90
36594;DHT22;22603;47.900;8.146;2022-11-30T00:20:10;4.20;99.90
36594;DHT22;22603;47.900;8.146;2022-11-30T00:22:57;4.20;99.90
36594;DHT22;22603;47.900;8.146;2022-11-30T00:25:47;4.20;99.90
36594;DHT22;22603;47.900;8.146;2022-11-30T00:28:35;4.20;99.90
36594;DHT22;22603;47.900;8.146;2022-11-30T00:31:22;4.30;99.90
36594;DHT22;22603;47.900;8.146;2022-11-30T00:34:10;4.30;99.90
36594;DHT22;22603;47.900;8.146;2022-11-30T00:36:57;4.20;99.90
36594;DHT22;22603;47.900;8.146;2022-11-30T00:39:44;4.30;99.90
36594;DHT22;22603;47.900;8.146;2022-11-30T00:42:32;4.30;99.90
36594;DHT22;22603;47.900;8.146;2022-11-30T00:45:19;4.30;99.90
36594;DHT22;22603;47.900;8.146;2022-11-30T00:48:06;4.20;99.90
36594;DHT22;22603;47.900;8.146;2022-11-30T00:50:53;4.20;99.90
36594;DHT22;22603;47.900;8.146;2022-11-30T00:53:40;4.20;99.90
36594;DHT22;22603;47.900;8.146;2022-11-30T00:56:27;4.10;99.90
36594;DHT22;22603;47.900;8.146;2022-11-30T00:59:15;4.10;99.90
36594;DHT22;22603;47.900;8.146;2022-11-30T01:02:03;4.20;99.90
36594;DHT22;22603;47.900;8.146;2022-11-30T01:04:50;4.10;99.90
36594;DHT22;22603;47.900;8.146;2022-11-30T01:07:37;4.10;99.90
36594;DHT22;22603;47.900;8.146;2022-11-30T01:10:24;4.10;99.90
36594;DHT22;22603;47.900;8.146;2022-11-30T01:13:12;4.10;99.90
36594;DHT22;22603;47.900;8.146;2022-11-30T01:16:00;4.10;99.90
36594;DHT22;22603;47.900;8.146;2022-11-30T01:18:48;4.10;99.90
36594;DHT22;22603;47.900;8.146;2022-11-30T01:21:35;4.10;99.90
36594;DHT22;22603;47.900;8.146;2022-11-30T01:24:22;4.10;99.90
36594;DHT22;22603;47.900;8.146;2022-11-30T01:27:09;4.10;99.90
36594;DHT22;22603;47.900;8.146;2022-11-30T01:29:56;4.10;99.90
36594;DHT22;22603;47.900;8.146;2022-11-30T01:32:44;4.10;99.90
36594;DHT22;22603;47.900;8.146;2022-11-30T01:35:31;4.10;99.90
36594;DHT22;22603;47.900;8.146;2022-11-30T01:38:18;4.10;99.90
36594;DHT22;22603;47.900;8.146;2022-11-30T01:41:06;4.10;99.90
36594;DHT22;22603;47.900;8.146;2022-11-30T01:43:55;4.10;99.90
36594;DHT22;22603;47.900;8.146;2022-11-30T01:46:44;4.00;99.90
36594;DHT22;22603;47.900;8.146;2022-11-30T01:49:40;4.00;99.90
36594;DHT22;22603;47.900;8.146;2022-11-30T01:52:32;4.00;99.90
36594;DHT22;22603;47.900;8.146;2022-11-30T01:55:23;4.00;99.90
36594;DHT22;22603;47.900;8.146;2022-11-30T01:58:14;4.00;99.90
36594;DHT22;22603;47.900;8.146;2022-11-30T02:01:02;4.00;99.90
36594;DHT22;22603;47.900;8.146;2022-11-30T02:03:54;4.00;99.90
36594;DHT22;22603;47.900;8.146;2022-11-30T02:06:45;3.90;99.90
36594;DHT22;22603;47.900;8.146;2022-11-30T02:09:36;3.90;99.90
36594;DHT22;22603;47.900;8.146;2022-11-30T02:12:33;3.90;99.90
36594;DHT22;22603;47.900;8.146;2022-11-30T02:15:28;3.90;99.90
36594;DHT22;22603;47.900;8.146;2022-11-30T02:18:21;3.90;99.90
36594;DHT22;22603;47.900;8.146;2022-11-30T02:21:14;3.90;99.90
36594;DHT22;22603;47.900;8.146;2022-11-30T02:24:19;3.90;99.90
36594;DHT22;22603;47.900;8.146;2022-11-30T02:27:19;3.90;99.90
36594;DHT22;22603;47.900;8.146;2022-11-30T02:30:11;3.90;99.90
36594;DHT22;22603;47.900;8.146;2022-11-30T02:33:03;3.90;99.90
36594;DHT22;22603;47.900;8.146;2022-11-30T02:35:52;3.90;99.90
36594;DHT22;22603;47.900;8.146;2022-11-30T02:38:41;3.90;99.90
36594;DHT22;22603;47.900;8.146;2022-11-30T02:41:34;3.90;99.90
36594;DHT22;22603;47.900;8.146;2022-11-30T02:44:23;3.90;99.90
36594;DHT22;22603;47.900;8.146;2022-11-30T02:47:18;3.80;99.90
36594;DHT22;22603;47.900;8.146;2022-11-30T02:50:11;3.70;99.90
36594;DHT22;22603;47.900;8.146;2022-11-30T02:53:00;3.60;99.90
36594;DHT22;22603;47.900;8.146;2022-11-30T02:55:47;3.60;99.90
36594;DHT22;22603;47.900;8.146;2022-11-30T02:58:34;3.60;99.90
36594;DHT22;22603;47.900;8.146;2022-11-30T03:01:21;3.60;99.90
36594;DHT22;22603;47.900;8.146;2022-11-30T03:04:10;3.60;99.90
36594;DHT22;22603;47.900;8.146;2022-11-30T03:06:57;3.50;99.90
36594;DHT22;22603;47.900;8.146;2022-11-30T03:09:44;3.50;99.90
36594;DHT22;22603;47.900;8.146;2022-11-30T03:12:31;3.40;99.90
36594;DHT22;22603;47.900;8.146;2022-11-30T03:15:19;3.30;99.90
36594;DHT22;22603;47.900;8.146;2022-11-30T03:18:07;3.30;99.90
36594;DHT22;22603;47.900;8.146;2022-11-30T03:20:55;3.20;99.90
36594;DHT22;22603;47.900;8.146;2022-11-30T03:23:42;3.20;99.90
36594;DHT22;22603;47.900;8.146;2022-11-30T03:26:29;3.20;99.90
36594;DHT22;22603;47.900;8.146;2022-11-30T03:29:16;3.20;99.90
36594;DHT22;22603;47.900;8.146;2022-11-30T03:32:04;3.20;99.90
36594;DHT22;22603;47.900;8.146;2022-11-30T03:34:51;3.20;99.90
36594;DHT22;22603;47.900;8.146;2022-11-30T03:37:40;3.30;99.90
36594;DHT22;22603;47.900;8.146;2022-11-30T03:40:27;3.30;99.90
36594;DHT22;22603;47.900;8.146;2022-11-30T03:43:14;3.20;99.90
36594;DHT22;22603;47.900;8.146;2022-11-30T03:46:01;3.20;99.90
36594;DHT22;22603;47.900;8.146;2022-11-30T03:48:48;3.20;99.90
36594;DHT22;22603;47.900;8.146;2022-11-30T03:51:35;3.30;99.90
36594;DHT22;22603;47.900;8.146;2022-11-30T03:54:24;3.30;99.90
36594;DHT22;22603;47.900;8.146;2022-11-30T03:57:11;3.20;99.90
36594;DHT22;22603;47.900;8.146;2022-11-30T03:59:58;3.20;99.90
36594;DHT22;22603;47.900;8.146;2022-11-30T04:02:46;3.20;99.90
36594;DHT22;22603;47.900;8.146;2022-11-30T04:05:33;3.20;99.90
36594;DHT22;22603;47.900;8.146;2022-11-30T04:08:20;3.20;99.90
36594;DHT22;22603;47.900;8.146;2022-11-30T04:11:09;3.20;99.90
36594;DHT22;22603;47.900;8.146;2022-11-30T04:13:56;3.20;99.90
36594;DHT22;22603;47.900;8.146;2022-11-30T04:16:43;3.20;99.90
36594;DHT22;22603;47.900;8.146;2022-11-30T04:19:30;3.20;99.90
36594;DHT22;22603;47.900;8.146;2022-11-30T04:22:17;3.20;99.90
36594;DHT22;22603;47.900;8.146;2022-11-30T04:25:05;3.10;99.90
36594;DHT22;22603;47.900;8.146;2022-11-30T04:27:54;3.10;99.90
36594;DHT22;22603;47.900;8.146;2022-11-30T04:30:41;3.10;99.90
36594;DHT22;22603;47.900;8.146;2022-11-30T04:33:29;3.10;99.90
36594;DHT22;22603;47.900;8.146;2022-11-30T04:36:18;3.10;99.90
36594;DHT22;22603;47.900;8.146;2022-11-30T04:39:05;3.20;99.90
36594;DHT22;22603;47.900;8.146;2022-11-30T04:41:52;3.20;99.90
36594;DHT22;22603;47.900;8.146;2022-11-30T04:44:40;3.20;99.90
36594;DHT22;22603;47.900;8.146;2022-11-30T04:47:27;3.20;99.90
36594;DHT22;22603;47.900;8.146;2022-11-30T04:50:14;3.20;99.90
36594;DHT22;22603;47.900;8.146;2022-11-30T04:53:01;3.30;99.90
36594;DHT22;22603;47.900;8.146;2022-11-30T04:55:49;3.30;99.90
36594;DHT22;22603;47.900;8.146;2022-11-30T04:58:36;3.30;99.90
36594;DHT22;22603;47.900;8.146;2022-11-30T05:01:26;3.30;99.90
36594;DHT22;22603;47.900;8.146;2022-11-30T05:04:14;3.30;99.90
36594;DHT22;22603;47.900;8.146;2022-11-30T05:07:01;3.30;99.90
36594;DHT22;22603;47.900;8.146;2022-11-30T05:09:48;3.30;99.90
36594;DHT22;22603;47.900;8.146;2022-11-30T05:12:35;3.30;99.90
36594;DHT22;22603;47.900;8.146;2022-11-30T05:15:21;3.30;99.90
36594;DHT22;22603;47.900;8.146;2022-11-30T05:18:10;3.30;99.90
36594;DHT22;22603;47.900;8.146;2022-11-30T05:20:57;3.30;99.90
36594;DHT22;22603;47.900;8.146;2022-11-30T05:23:44;3.30;99.90
36594;DHT22;22603;47.900;8.146;2022-11-30T05:26:34;3.30;99.90
36594;DHT22;22603;47.900;8.146;2022-11-30T05:29:21;3.30;99.90
36594;DHT22;22603;47.900;8.146;2022-11-30T05:32:08;3.30;99.90
36594;DHT22;22603;47.900;8.146;2022-11-30T05:34:58;3.30;99.90
36594;DHT22;22603;47.900;8.146;2022-11-30T05:37:45;3.30;99.90
36594;DHT22;22603;47.900;8.146;2022-11-30T05:40:32;3.30;99.90
36594;DHT22;22603;47.900;8.146;2022-11-30T05:43:18;3.30;99.90
36594;DHT22;22603;47.900;8.146;2022-11-30T05:46:07;3.30;99.90
36594;DHT22;22603;47.900;8.146;2022-11-30T05:48:54;3.30;99.90
36594;DHT22;22603;47.900;8.146;2022-11-30T05:51:43;3.30;99.90
36594;DHT22;22603;47.900;8.146;2022-11-30T05:54:30;3.30;99.90
36594;DHT22;22603;47.900;8.146;2022-11-30T05:57:17;3.20;99.90
36594;DHT22;22603;47.900;8.146;2022-11-30T06:00:07;3.30;99.90
36594;DHT22;22603;47.900;8.146;2022-11-30T06:02:55;3.30;99.90
36594;DHT22;22603;47.900;8.146;2022-11-30T06:05:43;3.30;99.90
36594;DHT22;22603;47.900;8.146;2022-11-30T06:08:31;3.30;99.90
36594;DHT22;22603;47.900;8.146;2022-11-30T06:11:18;3.30;99.90
36594;DHT22;22603;47.900;8.146;2022-11-30T06:14:05;3.30;99.90
36594;DHT22;22603;47.900;8.146;2022-11-30T06:16:53;3.30;99.90
36594;DHT22;22603;47.900;8.146;2022-11-30T06:19:40;3.30;99.90
36594;DHT22;22603;47.900;8.146;2022-11-30T06:22:28;3.30;99.90
36594;DHT22;22603;47.900;8.146;2022-11-30T06:25:17;3.30;99.90
36594;DHT22;22603;47.900;8.146;2022-11-30T06:28:08;3.40;99.90
36594;DHT22;22603;47.900;8.146;2022-11-30T06:30:57;3.40;99.90
36594;DHT22;22603;47.900;8.146;2022-11-30T06:33:44;3.40;99.90
36594;DHT22;22603;47.900;8.146;2022-11-30T06:36:31;3.30;99.90
36594;DHT22;22603;47.900;8.146;2022-11-30T06:39:21;3.30;99.90
36594;DHT22;22603;47.900;8.146;2022-11-30T06:42:29;3.30;99.90
36594;DHT22;22603;47.900;8.146;2022-11-30T06:45:17;3.30;99.90
36594;DHT22;22603;47.900;8.146;2022-11-30T06:48:05;3.30;99.90
36594;DHT22;22603;47.900;8.146;2022-11-30T06:50:54;3.30;99.90
36594;DHT22;22603;47.900;8.146;2022-11-30T06:53:42;3.30;99.90
36594;DHT22;22603;47.900;8.146;2022-11-30T06:56:35;3.30;99.90
36594;DHT22;22603;47.900;8.146;2022-11-30T06:59:27;3.30;99.90
36594;DHT22;22603;47.900;8.146;2022-11-30T07:02:15;3.40;99.90
36594;DHT22;22603;47.900;8.146;2022-11-30T07:05:03;3.40;99.90
36594;DHT22;22603;47.900;8.146;2022-11-30T07:07:51;3.40;99.90
36594;DHT22;22603;47.900;8.146;2022-11-30T07:10:39;3.40;99.90
36594;DHT22;22603;47.900;8.146;2022-11-30T07:13:26;3.40;99.90
36594;DHT22;22603;47.900;8.146;2022-11-30T07:16:16;3.40;99.90
36594;DHT22;22603;47.900;8.146;2022-11-30T07:19:03;3.50;99.90
36594;DHT22;22603;47.900;8.146;2022-11-30T07:21:50;3.50;99.90
36594;DHT22;22603;47.900;8.146;2022-11-30T07:24:37;3.50;99.90
36594;DHT22;22603;47.900;8.146;2022-11-30T07:27:42;3.60;99.90
36594;DHT22;22603;47.900;8.146;2022-11-30T07:30:30;3.60;99.90
36594;DHT22;22603;47.900;8.146;2022-11-30T07:33:18;3.60;99.90
36594;DHT22;22603;47.900;8.146;2022-11-30T07:36:06;3.60;99.90
36594;DHT22;22603;47.900;8.146;2022-11-30T07:38:53;3.60;99.90
36594;DHT22;22603;47.900;8.146;2022-11-30T07:41:41;3.70;99.90
36594;DHT22;22603;47.900;8.146;2022-11-30T07:44:28;3.70;99.90
36594;DHT22;22603;47.900;8.146;2022-11-30T07:47:15;3.70;99.90
36594;DHT22;22603;47.900;8.146;2022-11-30T07:50:04;3.80;99.90
36594;DHT22;22603;47.900;8.146;2022-11-30T07:52:51;3.80;99.90
36594;DHT22;22603;47.900;8.146;2022-11-30T07:55:39;3.80;99.90
36594;DHT22;22603;47.900;8.146;2022-11-30T07:58:27;3.70;99.90
36594;DHT22;22603;47.900;8.146;2022-11-30T08:01:16;3.80;99.90
36594;DHT22;22603;47.900;8.146;2022-11-30T08:04:04;3.80;99.90
36594;DHT22;22603;47.900;8.146;2022-11-30T08:06:53;3.90;99.90
36594;DHT22;22603;47.900;8.146;2022-11-30T08:09:40;3.80;99.90
36594;DHT22;22603;47.900;8.146;2022-11-30T08:12:29;3.80;99.90
36594;DHT22;22603;47.900;8.146;2022-11-30T08:15:17;3.80;99.90
36594;DHT22;22603;47.900;8.146;2022-11-30T08:18:06;3.80;99.90
36594;DHT22;22603;47.900;8.146;2022-11-30T08:20:57;3.90;99.90
36594;DHT22;22603;47.900;8.146;2022-11-30T08:23:47;4.00;99.90
36594;DHT22;22603;47.900;8.146;2022-11-30T08:26:34;3.90;99.90
36594;DHT22;22603;47.900;8.146;2022-11-30T08:29:22;4.00;99.90
36594;DHT22;22603;47.900;8.146;2022-11-30T08:32:09;4.00;99.90
36594;DHT22;22603;47.900;8.146;2022-11-30T08:34:56;4.00;99.90
36594;DHT22;22603;47.900;8.146;2022-11-30T08:37:43;3.90;99.90
36594;DHT22;22603;47.900;8.146;2022-11-30T08:40:31;3.90;99.90
36594;DHT22;22603;47.900;8.146;2022-11-30T08:43:19;3.90;99.90
36594;DHT22;22603;47.900;8.146;2022-11-30T08:46:07;3.90;99.90
36594;DHT22;22603;47.900;8.146;2022-11-30T08:49:15;3.90;99.90
36594;DHT22;22603;47.900;8.146;2022-11-30T08:52:07;3.90;99.90
36594;DHT22;22603;47.900;8.146;2022-11-30T08:55:03;3.90;99.90
36594;DHT22;22603;47.900;8.146;2022-11-30T08:57:54;3.80;99.90
36594;DHT22;22603;47.900;8.146;2022-11-30T09:00:41;3.70;99.90
36594;DHT22;22603;47.900;8.146;2022-11-30T09:03:28;3.70;99.90
36594;DHT22;22603;47.900;8.146;2022-11-30T09:06:17;3.60;99.90
36594;DHT22;22603;47.900;8.146;2022-11-30T09:09:05;3.60;99.90
36594;DHT22;22603;47.900;8.146;2022-11-30T09:11:52;3.60;99.90
36594;DHT22;22603;47.900;8.146;2022-11-30T09:14:40;3.70;99.90
36594;DHT22;22603;47.900;8.146;2022-11-30T09:17:30;3.80;99.90
36594;DHT22;22603;47.900;8.146;2022-11-30T09:20:18;3.70;99.90
36594;DHT22;22603;47.900;8.146;2022-11-30T09:23:05;3.80;99.90
36594;DHT22;22603;47.900;8.146;2022-11-30T09:25:54;3.80;99.90
36594;DHT22;22603;47.900;8.146;2022-11-30T09:28:42;3.80;99.90
36594;DHT22;22603;47.900;8.146;2022-11-30T09:31:31;3.80;99.90
36594;DHT22;22603;47.900;8.146;2022-11-30T09:34:18;3.90;99.90
36594;DHT22;22603;47.900;8.146;2022-11-30T09:37:04;3.90;99.90
36594;DHT22;22603;47.900;8.146;2022-11-30T09:39:52;3.90;99.90
36594;DHT22;22603;47.900;8.146;2022-11-30T09:42:49;3.80;99.90
36594;DHT22;22603;47.900;8.146;2022-11-30T09:45:39;3.90;99.90
36594;DHT22;22603;47.900;8.146;2022-11-30T09:48:46;3.90;99.90
36594;DHT22;22603;47.900;8.146;2022-11-30T09:51:42;3.90;99.90
36594;DHT22;22603;47.900;8.146;2022-11-30T09:54:35;4.00;99.90
36594;DHT22;22603;47.900;8.146;2022-11-30T09:57:26;3.90;99.90
36594;DHT22;22603;47.900;8.146;2022-11-30T10:03:04;3.90;99.90
36594;DHT22;22603;47.900;8.146;2022-11-30T10:05:57;4.00;99.90
36594;DHT22;22603;47.900;8.146;2022-11-30T10:09:01;4.00;99.90
36594;DHT22;22603;47.900;8.146;2022-11-30T10:11:58;4.00;99.90
36594;DHT22;22603;47.900;8.146;2022-11-30T10:15:06;4.10;99.90
36594;DHT22;22603;47.900;8.146;2022-11-30T10:17:55;4.10;99.90
36594;DHT22;22603;47.900;8.146;2022-11-30T10:20:57;4.20;99.90
36594;DHT22;22603;47.900;8.146;2022-11-30T10:23:57;4.10;99.90
36594;DHT22;22603;47.900;8.146;2022-11-30T10:26:53;4.20;99.90
36594;DHT22;22603;47.900;8.146;2022-11-30T10:29:41;4.20;99.90
36594;DHT22;22603;47.900;8.146;2022-11-30T10:32:34;4.30;99.90
36594;DHT22;22603;47.900;8.146;2022-11-30T10:35:32;4.20;99.90
36594;DHT22;22603;47.900;8.146;2022-11-30T10:38:26;4.20;99.90
36594;DHT22;22603;47.900;8.146;2022-11-30T10:41:17;4.10;99.90
36594;DHT22;22603;47.900;8.146;2022-11-30T10:44:13;4.00;99.90
36594;DHT22;22603;47.900;8.146;2022-11-30T10:47:04;4.00;99.90
36594;DHT22;22603;47.900;8.146;2022-11-30T10:49:53;4.00;99.90
36594;DHT22;22603;47.900;8.146;2022-11-30T10:52:44;4.00;99.90
36594;DHT22;22603;47.900;8.146;2022-11-30T10:55:35;4.00;99.90
36594;DHT22;22603;47.900;8.146;2022-11-30T10:58:28;4.00;99.90
36594;DHT22;22603;47.900;8.146;2022-11-30T11:01:30;4.10;99.90
36594;DHT22;22603;47.900;8.146;2022-11-30T11:04:19;4.00;99.90
36594;DHT22;22603;47.900;8.146;2022-11-30T11:07:09;4.00;99.90
36594;DHT22;22603;47.900;8.146;2022-11-30T11:10:00;4.00;99.90
36594;DHT22;22603;47.900;8.146;2022-11-30T11:12:53;4.10;99.90
36594;DHT22;22603;47.900;8.146;2022-11-30T11:15:55;4.10;99.90
36594;DHT22;22603;47.900;8.146;2022-11-30T11:18:52;4.10;99.90
36594;DHT22;22603;47.900;8.146;2022-11-30T11:21:51;4.20;99.90
36594;DHT22;22603;47.900;8.146;2022-11-30T11:24:38;4.10;99.90
36594;DHT22;22603;47.900;8.146;2022-11-30T11:27:27;4.20;99.90
36594;DHT22;22603;47.900;8.146;2022-11-30T11:30:27;4.10;99.90
36594;DHT22;22603;47.900;8.146;2022-11-30T11:33:20;4.20;99.90
36594;DHT22;22603;47.900;8.146;2022-11-30T11:36:14;4.20;99.90
36594;DHT22;22603;47.900;8.146;2022-11-30T11:39:01;4.20;99.90
36594;DHT22;22603;47.900;8.146;2022-11-30T11:41:48;4.10;99.90
36594;DHT22;22603;47.900;8.146;2022-11-30T11:44:35;4.20;99.90
36594;DHT22;22603;47.900;8.146;2022-11-30T11:47:26;4.30;99.90
36594;DHT22;22603;47.900;8.146;2022-11-30T11:50:24;4.40;99.90
36594;DHT22;22603;47.900;8.146;2022-11-30T11:53:42;4.60;99.90
36594;DHT22;22603;47.900;8.146;2022-11-30T11:56:42;4.60;99.90
36594;DHT22;22603;47.900;8.146;2022-11-30T11:59:53;4.60;99.90
36594;DHT22;22603;47.900;8.146;2022-11-30T12:02:50;4.50;99.90
36594;DHT22;22603;47.900;8.146;2022-11-30T12:05:42;4.50;99.90
36594;DHT22;22603;47.900;8.146;2022-11-30T12:08:36;4.40;99.90
36594;DHT22;22603;47.900;8.146;2022-11-30T12:11:30;4.30;99.90
36594;DHT22;22603;47.900;8.146;2022-11-30T12:14:21;4.30;99.90
36594;DHT22;22603;47.900;8.146;2022-11-30T12:17:21;4.40;99.90
36594;DHT22;22603;47.900;8.146;2022-11-30T12:20:19;4.30;99.90
36594;DHT22;22603;47.900;8.146;2022-11-30T12:23:23;4.20;99.90
36594;DHT22;22603;47.900;8.146;2022-11-30T12:26:18;4.10;99.90
36594;DHT22;22603;47.900;8.146;2022-11-30T12:29:33;4.20;99.90
36594;DHT22;22603;47.900;8.146;2022-11-30T12:32:27;4.40;99.90
36594;DHT22;22603;47.900;8.146;2022-11-30T12:35:28;4.50;99.90
36594;DHT22;22603;47.900;8.146;2022-11-30T12:38:25;4.90;99.90
36594;DHT22;22603;47.900;8.146;2022-11-30T12:41:29;4.90;99.90
36594;DHT22;22603;47.900;8.146;2022-11-30T12:44:26;4.90;99.90
36594;DHT22;22603;47.900;8.146;2022-11-30T12:47:25;4.80;99.90
36594;DHT22;22603;47.900;8.146;2022-11-30T12:50:27;4.60;99.90
36594;DHT22;22603;47.900;8.146;2022-11-30T12:53:20;4.80;99.90
36594;DHT22;22603;47.900;8.146;2022-11-30T12:56:18;4.90;99.90
36594;DHT22;22603;47.900;8.146;2022-11-30T12:59:21;5.00;99.90
36594;DHT22;22603;47.900;8.146;2022-11-30T13:02:30;5.10;99.90
36594;DHT22;22603;47.900;8.146;2022-11-30T13:05:24;5.00;99.90
36594;DHT22;22603;47.900;8.146;2022-11-30T13:08:20;5.00;99.90
36594;DHT22;22603;47.900;8.146;2022-11-30T13:11:14;4.90;99.90
36594;DHT22;22603;47.900;8.146;2022-11-30T13:14:08;4.70;99.90
36594;DHT22;22603;47.900;8.146;2022-11-30T13:17:00;4.60;99.90
36594;DHT22;22603;47.900;8.146;2022-11-30T13:19:53;4.50;99.90
36594;DHT22;22603;47.900;8.146;2022-11-30T13:22:49;4.40;99.90
36594;DHT22;22603;47.900;8.146;2022-11-30T13:25:43;4.40;99.90
36594;DHT22;22603;47.900;8.146;2022-11-30T13:29:03;4.20;99.90
36594;DHT22;22603;47.900;8.146;2022-11-30T13:31:55;4.30;99.90
36594;DHT22;22603;47.900;8.146;2022-11-30T13:34:50;4.30;99.90
36594;DHT22;22603;47.900;8.146;2022-11-30T13:37:37;4.30;99.90
36594;DHT22;22603;47.900;8.146;2022-11-30T13:40:26;4.30;99.90
36594;DHT22;22603;47.900;8.146;2022-11-30T13:43:15;4.30;99.90
36594;DHT22;22603;47.900;8.146;2022-11-30T13:46:10;4.30;99.90
36594;DHT22;22603;47.900;8.146;2022-11-30T13:49:17;4.30;99.90
36594;DHT22;22603;47.900;8.146;2022-11-30T13:52:05;4.20;99.90
36594;DHT22;22603;47.900;8.146;2022-11-30T13:55:43;4.30;99.90
36594;DHT22;22603;47.900;8.146;2022-11-30T13:58:32;4.30;99.90
36594;DHT22;22603;47.900;8.146;2022-11-30T14:01:25;4.30;99.90
36594;DHT22;22603;47.900;8.146;2022-11-30T14:04:42;4.30;99.90
36594;DHT22;22603;47.900;8.146;2022-11-30T14:07:42;4.20;99.90
36594;DHT22;22603;47.900;8.146;2022-11-30T14:10:51;4.30;99.90
36594;DHT22;22603;47.900;8.146;2022-11-30T14:13:39;4.20;99.90
36594;DHT22;22603;47.900;8.146;2022-11-30T14:16:28;4.10;99.90
36594;DHT22;22603;47.900;8.146;2022-11-30T14:19:15;4.10;99.90
36594;DHT22;22603;47.900;8.146;2022-11-30T14:22:03;4.00;99.90
36594;DHT22;22603;47.900;8.146;2022-11-30T14:24:52;4.00;99.90
36594;DHT22;22603;47.900;8.146;2022-11-30T14:27:41;4.00;99.90
36594;DHT22;22603;47.900;8.146;2022-11-30T14:30:37;4.00;99.90
36594;DHT22;22603;47.900;8.146;2022-11-30T14:33:40;4.00;99.90
36594;DHT22;22603;47.900;8.146;2022-11-30T14:36:33;4.00;99.90
36594;DHT22;22603;47.900;8.146;2022-11-30T14:39:26;4.00;99.90
36594;DHT22;22603;47.900;8.146;2022-11-30T14:42:18;3.80;99.90
36594;DHT22;22603;47.900;8.146;2022-11-30T14:45:17;3.80;99.90
36594;DHT22;22603;47.900;8.146;2022-11-30T14:48:06;3.70;99.90
36594;DHT22;22603;47.900;8.146;2022-11-30T14:50:54;3.70;99.90
36594;DHT22;22603;47.900;8.146;2022-11-30T14:53:46;3.60;99.90
36594;DHT22;22603;47.900;8.146;2022-11-30T14:56:38;3.60;99.90
36594;DHT22;22603;47.900;8.146;2022-11-30T14:59:39;3.50;99.90
36594;DHT22;22603;47.900;8.146;2022-11-30T15:02:31;3.50;99.90
36594;DHT22;22603;47.900;8.146;2022-11-30T15:05:23;3.50;99.90
36594;DHT22;22603;47.900;8.146;2022-11-30T15:08:14;3.50;99.90
36594;DHT22;22603;47.900;8.146;2022-11-30T15:11:04;3.50;99.90
36594;DHT22;22603;47.900;8.146;2022-11-30T15:13:53;3.60;99.90
36594;DHT22;22603;47.900;8.146;2022-11-30T15:16:46;3.60;99.90
36594;DHT22;22603;47.900;8.146;2022-11-30T15:19:35;3.50;99.90
36594;DHT22;22603;47.900;8.146;2022-11-30T15:22:23;3.60;99.90
36594;DHT22;22603;47.900;8.146;2022-11-30T15:25:11;3.60;99.90
36594;DHT22;22603;47.900;8.146;2022-11-30T15:27:59;3.60;99.90
36594;DHT22;22603;47.900;8.146;2022-11-30T15:30:47;3.50;99.90
36594;DHT22;22603;47.900;8.146;2022-11-30T15:33:41;3.50;99.90
36594;DHT22;22603;47.900;8.146;2022-11-30T15:36:34;3.50;99.90
36594;DHT22;22603;47.900;8.146;2022-11-30T15:39:25;3.50;99.90
36594;DHT22;22603;47.900;8.146;2022-11-30T15:42:19;3.50;99.90
36594;DHT22;22603;47.900;8.146;2022-11-30T15:45:16;3.40;99.90
36594;DHT22;22603;47.900;8.146;2022-11-30T15:48:26;3.30;99.90
36594;DHT22;22603;47.900;8.146;2022-11-30T15:51:22;3.40;99.90
36594;DHT22;22603;47.900;8.146;2022-11-30T15:54:12;3.30;99.90
36594;DHT22;22603;47.900;8.146;2022-11-30T15:56:59;3.20;99.90
36594;DHT22;22603;47.900;8.146;2022-11-30T16:00:18;3.30;99.90
36594;DHT22;22603;47.900;8.146;2022-11-30T16:03:07;3.20;99.90
36594;DHT22;22603;47.900;8.146;2022-11-30T16:05:56;3.20;99.90
36594;DHT22;22603;47.900;8.146;2022-11-30T16:08:45;3.10;99.90
36594;DHT22;22603;47.900;8.146;2022-11-30T16:11:37;3.20;99.90
36594;DHT22;22603;47.900;8.146;2022-11-30T16:14:25;3.10;99.90
36594;DHT22;22603;47.900;8.146;2022-11-30T16:17:12;3.20;99.90
36594;DHT22;22603;47.900;8.146;2022-11-30T16:19:59;3.20;99.90
36594;DHT22;22603;47.900;8.146;2022-11-30T16:22:46;3.20;99.90
36594;DHT22;22603;47.900;8.146;2022-11-30T16:25:59;3.10;99.90
36594;DHT22;22603;47.900;8.146;2022-11-30T16:29:23;3.20;99.90
36594;DHT22;22603;47.900;8.146;2022-11-30T16:32:11;3.20;99.90
36594;DHT22;22603;47.900;8.146;2022-11-30T16:34:59;3.10;99.90
36594;DHT22;22603;47.900;8.146;2022-11-30T16:37:47;3.10;99.90
36594;DHT22;22603;47.900;8.146;2022-11-30T16:40:34;3.00;99.90
36594;DHT22;22603;47.900;8.146;2022-11-30T16:43:23;3.00;99.90
36594;DHT22;22603;47.900;8.146;2022-11-30T16:46:14;3.00;99.90
36594;DHT22;22603;47.900;8.146;2022-11-30T16:49:02;3.00;99.90
36594;DHT22;22603;47.900;8.146;2022-11-30T16:51:49;2.90;99.90
36594;DHT22;22603;47.900;8.146;2022-11-30T16:54:37;2.90;99.90
36594;DHT22;22603;47.900;8.146;2022-11-30T16:57:24;2.80;99.90
36594;DHT22;22603;47.900;8.146;2022-11-30T17:00:13;2.70;99.90
36594;DHT22;22603;47.900;8.146;2022-11-30T17:03:06;2.60;99.90
36594;DHT22;22603;47.900;8.146;2022-11-30T17:05:54;2.60;99.90
36594;DHT22;22603;47.900;8.146;2022-11-30T17:08:43;2.60;99.90
36594;DHT22;22603;47.900;8.146;2022-11-30T17:11:32;2.60;99.90
36594;DHT22;22603;47.900;8.146;2022-11-30T17:14:22;2.60;99.90
36594;DHT22;22603;47.900;8.146;2022-11-30T17:17:09;2.60;99.90
36594;DHT22;22603;47.900;8.146;2022-11-30T17:19:57;2.60;99.90
36594;DHT22;22603;47.900;8.146;2022-11-30T17:22:54;2.60;99.90
36594;DHT22;22603;47.900;8.146;2022-11-30T17:26:03;2.60;99.90
36594;DHT22;22603;47.900;8.146;2022-11-30T17:29:03;2.60;99.90
36594;DHT22;22603;47.900;8.146;2022-11-30T17:31:50;2.60;99.90
36594;DHT22;22603;47.900;8.146;2022-11-30T17:34:39;2.60;99.90
36594;DHT22;22603;47.900;8.146;2022-11-30T17:37:27;2.60;99.90
36594;DHT22;22603;47.900;8.146;2022-11-30T17:40:15;2.60;99.90
36594;DHT22;22603;47.900;8.146;2022-11-30T17:43:02;2.50;99.90
36594;DHT22;22603;47.900;8.146;2022-11-30T17:45:49;2.50;99.90
36594;DHT22;22603;47.900;8.146;2022-11-30T17:48:36;2.50;99.90
36594;DHT22;22603;47.900;8.146;2022-11-30T17:51:24;2.40;99.90
36594;DHT22;22603;47.900;8.146;2022-11-30T17:54:13;2.40;99.90
36594;DHT22;22603;47.900;8.146;2022-11-30T17:57:00;2.40;99.90
36594;DHT22;22603;47.900;8.146;2022-11-30T17:59:47;2.40;99.90
36594;DHT22;22603;47.900;8.146;2022-11-30T18:02:34;2.40;99.90
36594;DHT22;22603;47.900;8.146;2022-11-30T18:05:21;2.40;99.90
36594;DHT22;22603;47.900;8.146;2022-11-30T18:08:09;2.40;99.90
36594;DHT22;22603;47.900;8.146;2022-11-30T18:10:57;2.30;99.90
36594;DHT22;22603;47.900;8.146;2022-11-30T18:13:45;2.40;99.90
36594;DHT22;22603;47.900;8.146;2022-11-30T18:16:34;2.40;99.90
36594;DHT22;22603;47.900;8.146;2022-11-30T18:19:22;2.40;99.90